Time;durP1;ratioP1;P1;durP2;ratioP2;P2;SDS_P1;SDS_P2;PMS_P1;PMS_P2;Temp;Humidity;BMP_temperature;BMP_pressure;BME280_temperature;BME280_humidity;BME280_pressure;Samples;Min_cycle;Max_cycle;Signal;HPM_P1;HPM_P2
2022/01/01 00:01:51;;;;;;;25.05;9.90;;;;;;;;;;5009997;28;20050;-66
2022/01/01 00:04:18;;;;;;;18.42;11.10;;;;;;;;;;4995041;28;20054;-66
2022/01/01 00:06:44;;;;;;;24.97;12.10;;;;;;;;;;4995329;28;20458;-66
2022/01/01 00:09:11;;;;;;;27.60;11.07;;;;;;;;;;4995143;28;20042;-67
2022/01/01 00:11:37;;;;;;;27.80;14.07;;;;;;;;;;4994808;28;20061;-67
2022/01/01 00:14:04;;;;;;;18.92;12.23;;;;;;;;;;4995110;28;20442;-67
2022/01/01 00:16:30;;;;;;;22.35;11.40;;;;;;;;;;4994728;28;20062;-67
2022/01/01 00:18:57;;;;;;;21.92;11.30;;;;;;;;;;4995072;28;20086;-66
2022/01/01 00:21:24;;;;;;;18.85;10.18;;;;;;;;;;4994615;28;20522;-67
2022/01/01 00:23:50;;;;;;;23.90;10.35;;;;;;;;;;4994939;28;20054;-67
2022/01/01 00:26:17;;;;;;;17.67;9.88;;;;;;;;;;4988729;28;20975;-67
2022/01/01 00:28:44;;;;;;;18.50;9.50;;;;;;;;;;4991759;28;20054;-67
2022/01/01 00:31:10;;;;;;;18.23;9.35;;;;;;;;;;4980898;28;20049;-67
2022/01/01 00:33:37;;;;;;;18.13;9.20;;;;;;;;;;4993582;28;20101;-67
2022/01/01 00:36:04;;;;;;;17.50;9.10;;;;;;;;;;4975020;28;20454;-67
2022/01/01 00:38:30;;;;;;;20.10;9.88;;;;;;;;;;4990941;28;20054;-66
2022/01/01 00:40:57;;;;;;;22.85;9.10;;;;;;;;;;4984722;28;20410;-67
2022/01/01 00:43:24;;;;;;;15.85;9.45;;;;;;;;;;4978571;28;20054;-67
2022/01/01 00:45:51;;;;;;;18.27;9.18;;;;;;;;;;4991594;28;20046;-67
2022/01/01 00:48:17;;;;;;;23.17;9.00;;;;;;;;;;4993187;28;20050;-67
2022/01/01 00:50:44;;;;;;;19.98;9.90;;;;;;;;;;4994085;28;20050;-66
2022/01/01 00:53:10;;;;;;;21.13;10.25;;;;;;;;;;4994422;28;20054;-66
2022/01/01 00:55:37;;;;;;;22.30;9.93;;;;;;;;;;5009356;28;20054;-66
2022/01/01 00:58:03;;;;;;;23.02;9.30;;;;;;;;;;4994224;28;20076;-67
2022/01/01 01:00:30;;;;;;;22.85;9.90;;;;;;;;;;4992690;28;20054;-67
2022/01/01 01:02:56;;;;;;;22.75;9.35;;;;;;;;;;4994031;28;20467;-67
2022/01/01 01:05:23;;;;;;;25.77;10.27;;;;;;;;;;4994169;28;20498;-67
2022/01/01 01:07:50;;;;;;;20.05;9.40;;;;;;;;;;4994009;28;20054;-67
2022/01/01 01:10:16;;;;;;;18.17;9.07;;;;;;;;;;4994103;28;20047;-66
2022/01/01 01:12:46;;;;;;;16.73;9.50;;;;;;;;;;4991764;28;20049;-67
2022/01/01 01:15:17;;;;;;;19.60;9.60;;;;;;;;;;5008922;28;20050;-66
2022/01/01 01:17:48;;;;;;;17.85;8.60;;;;;;;;;;4993711;28;20054;-66
2022/01/01 01:20:15;;;;;;;20.67;10.13;;;;;;;;;;4992042;28;20458;-67
2022/01/01 01:22:42;;;;;;;19.57;9.20;;;;;;;;;;4992620;28;20050;-67
2022/01/01 01:25:09;;;;;;;21.13;9.40;;;;;;;;;;4993815;28;20112;-67
2022/01/01 01:27:36;;;;;;;19.42;9.13;;;;;;;;;;4982771;28;20047;-66
2022/01/01 01:30:09;;;;;;;17.85;9.43;;;;;;;;;;4973960;28;20466;-66
2022/01/01 01:32:36;;;;;;;18.95;9.13;;;;;;;;;;4993680;28;20050;-66
2022/01/01 01:35:03;;;;;;;21.45;9.82;;;;;;;;;;4992385;28;20046;-66
2022/01/01 01:37:30;;;;;;;19.05;8.90;;;;;;;;;;4993601;28;20062;-66
2022/01/01 01:39:56;;;;;;;18.75;8.93;;;;;;;;;;4993305;28;20046;-66
2022/01/01 01:42:24;;;;;;;19.02;8.48;;;;;;;;;;4984155;28;20047;-67
2022/01/01 01:44:53;;;;;;;16.75;8.23;;;;;;;;;;4989024;28;20494;-67
2022/01/01 01:47:28;;;;;;;17.70;8.93;;;;;;;;;;4987784;28;20054;-67
2022/01/01 01:49:55;;;;;;;17.50;8.38;;;;;;;;;;4989398;28;20050;-66
2022/01/01 01:52:22;;;;;;;27.25;9.27;;;;;;;;;;4992056;28;20124;-66
2022/01/01 01:54:48;;;;;;;17.38;8.65;;;;;;;;;;4992651;28;20120;-67
2022/01/01 01:57:15;;;;;;;26.05;10.02;;;;;;;;;;4992712;28;20109;-67
2022/01/01 01:59:41;;;;;;;24.58;9.77;;;;;;;;;;4993007;28;20054;-66
2022/01/01 02:02:08;;;;;;;15.68;8.77;;;;;;;;;;4976125;28;20105;-66
2022/01/01 02:04:35;;;;;;;20.48;9.18;;;;;;;;;;4985703;28;20050;-66
2022/01/01 02:07:02;;;;;;;16.55;8.77;;;;;;;;;;4992247;28;20050;-66
2022/01/01 02:09:28;;;;;;;26.95;9.27;;;;;;;;;;4992603;28;20495;-66
2022/01/01 02:11:58;;;;;;;18.83;9.43;;;;;;;;;;4992791;28;20061;-66
2022/01/01 02:14:37;;;;;;;23.08;9.30;;;;;;;;;;4992666;28;20561;-66
2022/01/01 02:19:42;;;;;;;18.02;8.93;;;;;;;;;;4977312;28;20061;-66
2022/01/01 02:22:10;;;;;;;21.40;9.88;;;;;;;;;;4979221;28;20466;-66
2022/01/01 02:24:37;;;;;;;24.30;9.00;;;;;;;;;;4992403;28;20058;-66
2022/01/01 02:27:03;;;;;;;22.15;9.25;;;;;;;;;;4992212;28;20050;-66
2022/01/01 02:29:30;;;;;;;19.13;8.43;;;;;;;;;;4990866;28;20108;-66
2022/01/01 02:31:57;;;;;;;20.10;8.07;;;;;;;;;;4991283;28;20453;-66
2022/01/01 02:34:23;;;;;;;18.17;8.57;;;;;;;;;;4992264;28;20070;-66
2022/01/01 02:36:51;;;;;;;23.27;8.40;;;;;;;;;;4992258;28;20353;-66
2022/01/01 02:39:19;;;;;;;26.40;8.80;;;;;;;;;;4992344;28;20054;-66
2022/01/01 02:41:46;;;;;;;19.48;8.43;;;;;;;;;;4992366;28;20051;-66
2022/01/01 02:44:13;;;;;;;18.40;8.07;;;;;;;;;;4992530;28;20046;-66
2022/01/01 02:46:40;;;;;;;20.30;8.03;;;;;;;;;;4991646;28;20077;-66
2022/01/01 02:49:06;;;;;;;16.80;7.43;;;;;;;;;;4990764;28;20307;-66
2022/01/01 02:51:33;;;;;;;18.17;7.32;;;;;;;;;;5007159;28;20494;-66
2022/01/01 02:54:00;;;;;;;14.55;7.72;;;;;;;;;;4992112;28;20081;-66
2022/01/01 02:56:26;;;;;;;18.90;7.47;;;;;;;;;;4992468;28;20113;-66
2022/01/01 02:58:53;;;;;;;19.23;8.00;;;;;;;;;;4992228;28;20446;-69
2022/01/01 03:01:19;;;;;;;18.27;7.40;;;;;;;;;;4992285;28;20050;-65
2022/01/01 03:03:47;;;;;;;20.73;7.43;;;;;;;;;;4992146;28;20512;-65
2022/01/01 03:06:19;;;;;;;22.50;8.68;;;;;;;;;;4992065;28;20058;-66
2022/01/01 03:08:51;;;;;;;18.98;7.93;;;;;;;;;;4992158;28;20046;-66
2022/01/01 03:11:18;;;;;;;18.00;7.78;;;;;;;;;;4990945;28;20051;-66
2022/01/01 03:13:44;;;;;;;20.07;8.07;;;;;;;;;;4992282;28;20050;-66
2022/01/01 03:16:11;;;;;;;15.27;6.75;;;;;;;;;;4991781;28;20346;-66
2022/01/01 03:18:38;;;;;;;16.97;6.17;;;;;;;;;;4993090;28;20124;-66
2022/01/01 03:21:05;;;;;;;19.48;8.73;;;;;;;;;;4996056;28;20288;-66
2022/01/01 03:23:31;;;;;;;17.13;6.95;;;;;;;;;;4996772;28;20120;-66
2022/01/01 03:25:59;;;;;;;17.05;7.25;;;;;;;;;;4995919;28;20050;-66
2022/01/01 03:28:26;;;;;;;19.00;7.55;;;;;;;;;;4995787;28;20109;-66
2022/01/01 03:30:53;;;;;;;18.15;7.25;;;;;;;;;;4995863;28;20057;-66
2022/01/01 03:33:20;;;;;;;13.57;6.30;;;;;;;;;;4995903;28;20046;-66
2022/01/01 03:35:48;;;;;;;16.55;6.22;;;;;;;;;;4995615;28;20042;-66
2022/01/01 03:38:15;;;;;;;14.98;6.45;;;;;;;;;;4995828;28;20088;-66
2022/01/01 03:40:42;;;;;;;16.75;6.45;;;;;;;;;;4995656;28;20458;-66
2022/01/01 03:43:08;;;;;;;15.35;6.63;;;;;;;;;;4995523;28;20050;-66
2022/01/01 03:45:36;;;;;;;18.30;6.53;;;;;;;;;;4995576;28;20503;-66
2022/01/01 03:48:06;;;;;;;20.40;6.43;;;;;;;;;;4995227;28;20074;-68
2022/01/01 03:50:33;;;;;;;15.27;6.80;;;;;;;;;;4995690;28;20050;-66
2022/01/01 03:52:59;;;;;;;21.03;6.83;;;;;;;;;;5010604;28;20542;-66
2022/01/01 03:55:26;;;;;;;15.77;7.05;;;;;;;;;;4995522;28;20046;-67
2022/01/01 03:57:52;;;;;;;11.60;6.63;;;;;;;;;;4995307;28;20454;-66
2022/01/01 04:00:19;;;;;;;14.80;7.53;;;;;;;;;;4995414;28;20054;-66
2022/01/01 04:02:45;;;;;;;17.13;6.95;;;;;;;;;;4995372;28;20054;-66
2022/01/01 04:05:12;;;;;;;16.40;6.60;;;;;;;;;;4993808;28;20527;-66
2022/01/01 04:07:39;;;;;;;22.75;7.68;;;;;;;;;;4995021;28;20050;-66
2022/01/01 04:10:06;;;;;;;18.52;6.63;;;;;;;;;;4994988;28;20046;-66
2022/01/01 04:12:32;;;;;;;15.27;7.40;;;;;;;;;;4995162;28;20105;-67
2022/01/01 04:15:02;;;;;;;18.50;7.30;;;;;;;;;;4995201;28;20102;-67
2022/01/01 04:17:28;;;;;;;17.55;7.32;;;;;;;;;;4994512;28;20132;-66
2022/01/01 04:19:55;;;;;;;18.23;7.03;;;;;;;;;;4995031;28;20458;-67
2022/01/01 04:22:21;;;;;;;14.80;6.65;;;;;;;;;;4995062;28;20050;-66
2022/01/01 04:24:48;;;;;;;16.40;6.53;;;;;;;;;;4994768;28;20481;-66
2022/01/01 04:27:14;;;;;;;18.85;6.40;;;;;;;;;;4993532;28;20108;-66
2022/01/01 04:29:41;;;;;;;17.02;6.32;;;;;;;;;;5009027;28;20129;-67
2022/01/01 04:32:09;;;;;;;16.42;5.70;;;;;;;;;;4994680;28;20491;-67
2022/01/01 04:34:35;;;;;;;13.40;6.07;;;;;;;;;;4994766;28;20097;-67
2022/01/01 04:37:04;;;;;;;19.17;7.18;;;;;;;;;;4994554;28;20054;-66
2022/01/01 04:39:30;;;;;;;12.45;5.65;;;;;;;;;;4994391;28;20499;-66
2022/01/01 04:41:57;;;;;;;19.73;6.65;;;;;;;;;;4994549;28;20059;-66
2022/01/01 04:44:23;;;;;;;14.90;6.45;;;;;;;;;;4994585;28;20054;-66
2022/01/01 04:46:50;;;;;;;18.37;5.50;;;;;;;;;;4994305;28;20101;-66
2022/01/01 04:49:17;;;;;;;15.57;6.53;;;;;;;;;;4994190;28;20388;-66
2022/01/01 04:51:43;;;;;;;14.52;6.35;;;;;;;;;;4994241;28;20490;-66
2022/01/01 04:54:15;;;;;;;19.98;6.35;;;;;;;;;;4994290;28;20384;-66
2022/01/01 04:56:44;;;;;;;15.48;6.28;;;;;;;;;;4994243;28;20108;-69
2022/01/01 04:59:11;;;;;;;13.00;5.32;;;;;;;;;;4994413;28;20063;-66
2022/01/01 05:01:39;;;;;;;20.20;6.10;;;;;;;;;;4994043;28;20560;-66
2022/01/01 05:04:08;;;;;;;20.83;7.07;;;;;;;;;;4994083;28;20050;-66
2022/01/01 05:06:35;;;;;;;16.50;5.60;;;;;;;;;;4994086;28;20054;-66
2022/01/01 05:09:02;;;;;;;14.35;5.10;;;;;;;;;;4994153;28;20101;-66
2022/01/01 05:11:28;;;;;;;11.85;5.32;;;;;;;;;;4993933;28;20058;-66
2022/01/01 05:13:55;;;;;;;13.23;4.65;;;;;;;;;;4994044;28;20457;-66
2022/01/01 05:16:22;;;;;;;13.73;5.50;;;;;;;;;;4993485;28;20113;-66
2022/01/01 05:18:48;;;;;;;10.35;4.80;;;;;;;;;;4993896;28;20145;-68
2022/01/01 05:21:15;;;;;;;14.45;4.90;;;;;;;;;;4994008;28;20124;-66
2022/01/01 05:23:42;;;;;;;17.85;4.55;;;;;;;;;;4993572;28;20050;-66
2022/01/01 05:26:08;;;;;;;15.18;5.32;;;;;;;;;;4993448;28;20490;-66
2022/01/01 05:28:35;;;;;;;14.98;4.93;;;;;;;;;;4993658;28;20054;-66
2022/01/01 05:31:01;;;;;;;13.23;4.30;;;;;;;;;;4993717;28;20101;-67
2022/01/01 05:33:28;;;;;;;12.52;4.53;;;;;;;;;;4993518;28;20051;-66
2022/01/01 05:35:54;;;;;;;11.32;4.57;;;;;;;;;;4992234;28;20046;-66
2022/01/01 05:38:21;;;;;;;11.18;4.43;;;;;;;;;;4993295;28;20096;-66
2022/01/01 05:40:52;;;;;;;10.07;3.92;;;;;;;;;;4991831;28;20053;-66
2022/01/01 05:43:18;;;;;;;11.23;4.35;;;;;;;;;;4993314;28;20454;-67
2022/01/01 05:45:46;;;;;;;12.77;3.95;;;;;;;;;;4993235;28;20491;-66
2022/01/01 05:48:13;;;;;;;;;;;;;;;;;;4993496;28;20510;-66
2022/01/01 05:50:39;;;;;;;14.02;4.15;;;;;;;;;;4993364;28;19972;-66
2022/01/01 05:53:05;;;;;;;10.48;3.72;;;;;;;;;;4993273;28;20104;-66
2022/01/01 05:55:32;;;;;;;9.45;3.55;;;;;;;;;;4993276;28;20050;-66
2022/01/01 05:57:58;;;;;;;12.05;3.45;;;;;;;;;;4993148;28;20104;-66
2022/01/01 06:00:25;;;;;;;8.82;3.67;;;;;;;;;;4994383;28;20047;-66
2022/01/01 06:02:51;;;;;;;10.32;3.95;;;;;;;;;;4992999;28;20426;-66
2022/01/01 06:05:18;;;;;;;10.27;4.22;;;;;;;;;;4993005;28;20054;-66
2022/01/01 06:07:44;;;;;;;9.80;3.75;;;;;;;;;;4992811;28;20046;-66
2022/01/01 06:10:11;;;;;;;12.73;4.13;;;;;;;;;;4992932;28;20046;-66
2022/01/01 06:12:38;;;;;;;13.20;3.63;;;;;;;;;;4993102;28;20117;-66
2022/01/01 06:15:05;;;;;;;11.27;4.25;;;;;;;;;;4992673;28;20457;-66
2022/01/01 06:17:31;;;;;;;10.77;3.88;;;;;;;;;;4992588;28;20055;-66
2022/01/01 06:19:58;;;;;;;10.07;3.42;;;;;;;;;;4992629;28;20465;-66
2022/01/01 06:22:26;;;;;;;11.77;3.80;;;;;;;;;;4992887;28;20080;-66
2022/01/01 06:24:53;;;;;;;8.32;2.90;;;;;;;;;;4993088;28;20434;-66
2022/01/01 06:27:19;;;;;;;10.82;3.67;;;;;;;;;;4992670;28;20100;-66
2022/01/01 06:29:46;;;;;;;9.70;3.70;;;;;;;;;;4992700;28;20121;-66
2022/01/01 06:32:12;;;;;;;11.02;3.53;;;;;;;;;;4992540;28;20108;-66
2022/01/01 06:34:39;;;;;;;12.75;4.38;;;;;;;;;;4992359;28;20482;-66
2022/01/01 06:37:05;;;;;;;9.05;3.33;;;;;;;;;;4992762;28;20114;-66
2022/01/01 06:39:32;;;;;;;9.48;3.60;;;;;;;;;;4992354;28;20634;-66
2022/01/01 06:41:58;;;;;;;9.90;2.90;;;;;;;;;;4992627;28;20058;-66
2022/01/01 06:44:24;;;;;;;6.95;2.90;;;;;;;;;;4992305;28;20054;-66
2022/01/01 06:46:53;;;;;;;11.17;2.90;;;;;;;;;;4992542;28;20406;-66
2022/01/01 06:49:19;;;;;;;;;;;;;;;;;;4992893;28;20050;-66
2022/01/01 06:51:46;;;;;;;10.55;3.10;;;;;;;;;;4992563;28;19926;-66
2022/01/01 06:54:12;;;;;;;9.57;3.08;;;;;;;;;;4992398;28;20120;-66
2022/01/01 06:56:39;;;;;;;10.52;3.03;;;;;;;;;;4992406;28;20112;-66
2022/01/01 06:59:05;;;;;;;8.98;3.35;;;;;;;;;;4992353;28;20050;-66
2022/01/01 07:01:32;;;;;;;14.10;3.80;;;;;;;;;;4992390;28;20081;-66
2022/01/01 07:03:58;;;;;;;11.10;3.03;;;;;;;;;;4992459;28;20046;-66
2022/01/01 07:06:25;;;;;;;12.95;3.30;;;;;;;;;;4992371;28;20050;-66
2022/01/01 07:08:51;;;;;;;8.70;3.00;;;;;;;;;;4992426;28;20101;-66
2022/01/01 07:11:18;;;;;;;13.02;3.22;;;;;;;;;;4992346;28;20116;-66
2022/01/01 07:13:44;;;;;;;9.45;2.97;;;;;;;;;;4992284;28;20133;-66
2022/01/01 07:16:11;;;;;;;13.20;3.60;;;;;;;;;;4991961;28;20089;-66
2022/01/01 07:18:37;;;;;;;8.73;3.42;;;;;;;;;;5007239;28;20077;-66
2022/01/01 07:21:04;;;;;;;10.38;3.28;;;;;;;;;;4992178;28;20391;-66
2022/01/01 07:23:30;;;;;;;10.75;3.15;;;;;;;;;;4992348;28;20054;-66
2022/01/01 07:25:58;;;;;;;12.10;3.65;;;;;;;;;;4992097;28;20054;-66
2022/01/01 07:28:24;;;;;;;11.95;3.30;;;;;;;;;;4992273;28;20050;-66
2022/01/01 07:30:51;;;;;;;13.52;3.10;;;;;;;;;;4991995;28;20109;-66
2022/01/01 07:33:17;;;;;;;10.43;3.47;;;;;;;;;;4992133;28;20046;-66
2022/01/01 07:35:44;;;;;;;8.02;3.10;;;;;;;;;;4991862;28;20495;-66
2022/01/01 07:38:10;;;;;;;13.25;4.00;;;;;;;;;;4991791;28;20120;-66
2022/01/01 07:40:39;;;;;;;10.23;3.35;;;;;;;;;;4991917;28;20062;-66
2022/01/01 07:43:15;;;;;;;10.80;3.22;;;;;;;;;;4992054;28;20046;-66
2022/01/01 07:45:42;;;;;;;8.30;3.30;;;;;;;;;;4991741;28;20105;-66
2022/01/01 07:48:09;;;;;;;10.45;3.47;;;;;;;;;;4991853;28;20105;-66
2022/01/01 07:50:36;;;;;;;11.43;3.13;;;;;;;;;;4991923;28;20058;-66
2022/01/01 07:53:04;;;;;;;11.50;3.17;;;;;;;;;;4991996;28;20046;-66
2022/01/01 07:55:30;;;;;;;12.50;3.30;;;;;;;;;;4992007;28;20493;-66
2022/01/01 07:57:57;;;;;;;15.35;3.15;;;;;;;;;;4991595;28;20557;-66
2022/01/01 08:00:23;;;;;;;12.30;3.38;;;;;;;;;;5006652;28;20548;-67
2022/01/01 08:02:50;;;;;;;11.60;3.60;;;;;;;;;;4991892;28;20065;-66
2022/01/01 08:05:17;;;;;;;13.02;3.88;;;;;;;;;;4993496;28;20061;-66
2022/01/01 08:07:44;;;;;;;13.85;3.15;;;;;;;;;;4995131;28;20077;-67
2022/01/01 08:10:29;;;;;;;12.20;2.92;;;;;;;;;;4994939;28;20042;-67
2022/01/01 08:12:56;;;;;;;9.43;2.70;;;;;;;;;;4995122;28;20054;-67
2022/01/01 08:15:23;;;;;;;9.75;2.85;;;;;;;;;;4995048;28;20047;-66
2022/01/01 08:17:49;;;;;;;10.98;3.20;;;;;;;;;;4994834;28;20046;-66
2022/01/01 08:20:16;;;;;;;10.98;3.33;;;;;;;;;;4994991;28;20058;-66
2022/01/01 08:22:42;;;;;;;11.65;2.97;;;;;;;;;;4993553;28;20050;-66
2022/01/01 08:25:09;;;;;;;14.02;3.60;;;;;;;;;;4994725;28;20384;-67
2022/01/01 08:27:35;;;;;;;11.60;3.17;;;;;;;;;;4994948;28;20054;-67
2022/01/01 08:30:02;;;;;;;10.18;3.13;;;;;;;;;;5009815;28;20418;-67
2022/01/01 08:32:28;;;;;;;13.27;3.63;;;;;;;;;;4994592;28;20568;-66
2022/01/01 08:34:55;;;;;;;16.92;3.53;;;;;;;;;;4994857;28;20058;-67
2022/01/01 08:37:21;;;;;;;10.52;2.92;;;;;;;;;;4994526;28;20104;-66
2022/01/01 08:39:47;;;;;;;10.95;3.78;;;;;;;;;;4993150;28;20093;-66
2022/01/01 08:42:14;;;;;;;11.77;3.22;;;;;;;;;;4994717;28;20104;-66
2022/01/01 08:44:41;;;;;;;10.60;3.28;;;;;;;;;;4994565;28;20473;-66
2022/01/01 08:47:07;;;;;;;10.65;2.70;;;;;;;;;;4994677;28;20407;-66
2022/01/01 08:49:33;;;;;;;11.75;3.53;;;;;;;;;;4981379;28;20098;-66
2022/01/01 08:52:00;;;;;;;16.00;3.80;;;;;;;;;;4993373;28;20121;-66
2022/01/01 08:54:27;;;;;;;10.38;3.42;;;;;;;;;;4994287;28;20105;-66
2022/01/01 08:56:54;;;;;;;14.60;3.22;;;;;;;;;;5009043;28;20047;-66
2022/01/01 08:59:20;;;;;;;10.95;3.38;;;;;;;;;;4994502;28;20050;-66
2022/01/01 09:01:47;;;;;;;18.00;3.47;;;;;;;;;;4993982;28;20116;-66
2022/01/01 09:04:14;;;;;;;13.15;3.55;;;;;;;;;;4994355;28;20046;-66
2022/01/01 09:06:40;;;;;;;15.93;4.00;;;;;;;;;;4993964;28;20050;-66
2022/01/01 09:09:06;;;;;;;12.07;2.88;;;;;;;;;;4994184;28;20050;-66
2022/01/01 09:11:33;;;;;;;15.10;3.60;;;;;;;;;;4991258;28;20093;-66
2022/01/01 09:13:59;;;;;;;15.32;3.55;;;;;;;;;;4982403;28;20073;-66
2022/01/01 09:16:29;;;;;;;16.55;3.95;;;;;;;;;;4992497;28;20089;-67
2022/01/01 09:18:56;;;;;;;13.60;4.05;;;;;;;;;;4993712;28;20050;-66
2022/01/01 09:21:23;;;;;;;12.50;4.00;;;;;;;;;;4993556;28;20441;-66
2022/01/01 09:23:50;;;;;;;16.95;4.10;;;;;;;;;;4993912;28;20288;-66
2022/01/01 09:26:16;;;;;;;14.43;3.35;;;;;;;;;;4993723;28;20449;-67
2022/01/01 09:28:43;;;;;;;16.75;3.75;;;;;;;;;;4993716;28;20082;-66
2022/01/01 09:31:09;;;;;;;17.27;4.07;;;;;;;;;;4993725;28;20116;-67
2022/01/01 09:33:36;;;;;;;14.10;3.20;;;;;;;;;;4993359;28;20096;-67
2022/01/01 09:36:03;;;;;;;14.43;4.15;;;;;;;;;;4993443;28;20058;-68
2022/01/01 09:38:30;;;;;;;19.45;3.85;;;;;;;;;;4992430;28;20054;-68
2022/01/01 09:40:57;;;;;;;16.25;4.22;;;;;;;;;;4993447;28;20104;-67
2022/01/01 09:43:25;;;;;;;16.93;4.47;;;;;;;;;;4992113;28;20458;-67
2022/01/01 09:45:52;;;;;;;14.93;4.55;;;;;;;;;;4993598;28;20640;-68
2022/01/01 09:48:20;;;;;;;21.10;4.70;;;;;;;;;;4993396;28;20046;-68
2022/01/01 09:50:49;;;;;;;16.23;4.10;;;;;;;;;;4993096;28;20050;-67
2022/01/01 09:53:17;;;;;;;23.83;4.53;;;;;;;;;;4993326;28;20412;-68
2022/01/01 09:55:44;;;;;;;20.10;4.30;;;;;;;;;;4993003;28;20054;-67
2022/01/01 09:58:10;;;;;;;17.90;5.03;;;;;;;;;;4993222;28;20446;-68
2022/01/01 10:00:37;;;;;;;20.20;4.90;;;;;;;;;;4993005;28;20120;-67
2022/01/01 10:03:04;;;;;;;24.65;5.28;;;;;;;;;;4993364;28;20054;-67
2022/01/01 10:05:30;;;;;;;26.00;5.10;;;;;;;;;;4992832;28;20054;-67
2022/01/01 10:08:00;;;;;;;18.23;4.05;;;;;;;;;;4993126;28;20105;-67
2022/01/01 10:10:27;;;;;;;17.80;4.57;;;;;;;;;;4992867;28;20050;-67
2022/01/01 10:12:54;;;;;;;24.58;4.80;;;;;;;;;;4993075;28;20140;-68
2022/01/01 10:15:20;;;;;;;18.27;4.15;;;;;;;;;;4992761;28;20108;-68
2022/01/01 10:17:47;;;;;;;15.30;5.30;;;;;;;;;;4992420;28;20058;-69
2022/01/01 10:20:13;;;;;;;18.27;4.90;;;;;;;;;;4991792;28;20046;-68
2022/01/01 10:22:44;;;;;;;24.27;5.00;;;;;;;;;;4992777;28;20165;-68
2022/01/01 10:27:58;;;;;;;22.67;4.70;;;;;;;;;;4992152;28;20494;-68
2022/01/01 10:30:28;;;;;;;21.27;5.13;;;;;;;;;;4992620;28;20046;-68
2022/01/01 10:33:02;;;;;;;28.15;6.68;;;;;;;;;;4975485;28;20055;-68
2022/01/01 10:35:33;;;;;;;23.13;5.47;;;;;;;;;;4989846;28;20050;-68
2022/01/01 10:38:02;;;;;;;21.92;5.45;;;;;;;;;;4990855;28;20117;-68
2022/01/01 10:40:29;;;;;;;24.75;5.68;;;;;;;;;;4992123;28;20058;-67
2022/01/01 10:42:55;;;;;;;18.17;5.00;;;;;;;;;;4985660;28;20196;-68
2022/01/01 10:45:28;;;;;;;19.48;4.97;;;;;;;;;;4972788;28;20043;-68
2022/01/01 10:48:27;;;;;;;23.73;5.18;;;;;;;;;;4984942;28;20517;-67
2022/01/01 10:50:54;;;;;;;21.80;5.40;;;;;;;;;;4992417;28;20112;-68
2022/01/01 10:53:22;;;;;;;28.92;7.13;;;;;;;;;;4992445;28;20522;-68
2022/01/01 10:55:48;;;;;;;;;;;;;;;;;;4992650;28;20046;-67
2022/01/01 10:58:22;;;;;;;26.13;5.45;;;;;;;;;;4992405;28;19933;-68
2022/01/01 11:00:50;;;;;;;29.17;6.07;;;;;;;;;;4992520;28;20058;-67
2022/01/01 11:03:17;;;;;;;22.20;4.80;;;;;;;;;;4973585;28;20505;-68
2022/01/01 11:05:45;;;;;;;25.45;5.72;;;;;;;;;;4978169;28;20065;-68
2022/01/01 11:08:12;;;;;;;31.02;6.18;;;;;;;;;;4972229;28;20113;-67
2022/01/01 11:10:39;;;;;;;25.23;5.15;;;;;;;;;;4972401;28;20129;-68
2022/01/01 11:13:06;;;;;;;25.63;5.33;;;;;;;;;;4980602;28;20042;-68
2022/01/01 11:15:33;;;;;;;28.15;6.03;;;;;;;;;;4992046;28;20054;-69
2022/01/01 11:18:04;;;;;;;26.08;6.00;;;;;;;;;;4992730;28;20051;-67
2022/01/01 11:20:34;;;;;;;30.50;5.63;;;;;;;;;;4992213;28;20058;-68
2022/01/01 11:23:02;;;;;;;27.00;5.35;;;;;;;;;;4992231;28;20050;-68
2022/01/01 11:25:28;;;;;;;25.20;5.20;;;;;;;;;;5006939;28;20104;-68
2022/01/01 11:27:55;;;;;;;24.70;5.82;;;;;;;;;;4991810;28;20046;-67
2022/01/01 11:30:25;;;;;;;29.40;5.60;;;;;;;;;;4991797;28;20569;-67
2022/01/01 11:32:53;;;;;;;30.77;6.53;;;;;;;;;;4992024;28;20051;-67
2022/01/01 11:35:21;;;;;;;28.73;5.30;;;;;;;;;;4992232;28;20082;-67
2022/01/01 11:38:03;;;;;;;29.30;5.65;;;;;;;;;;4992047;28;20052;-68
2022/01/01 11:40:49;;;;;;;31.13;6.90;;;;;;;;;;4976312;28;20062;-68
2022/01/01 11:43:52;;;;;;;26.00;5.68;;;;;;;;;;4974752;28;20487;-68
2022/01/01 11:46:23;;;;;;;32.40;6.53;;;;;;;;;;4992570;28;20077;-68
2022/01/01 11:48:56;;;;;;;28.83;6.55;;;;;;;;;;4994928;28;20058;-68
2022/01/01 11:51:23;;;;;;;34.97;6.57;;;;;;;;;;4995598;28;20195;-68
2022/01/01 11:54:03;;;;;;;25.65;5.68;;;;;;;;;;4995374;28;20050;-68
2022/01/01 11:56:58;;;;;;;34.78;6.05;;;;;;;;;;4995317;28;20057;-68
2022/01/01 11:59:28;;;;;;;42.58;7.18;;;;;;;;;;4995272;28;20050;-68
2022/01/01 12:01:57;;;;;;;33.55;6.40;;;;;;;;;;4995528;28;20054;-68
2022/01/01 12:04:28;;;;;;;29.55;5.55;;;;;;;;;;4995455;28;20406;-68
2022/01/01 12:07:00;;;;;;;36.60;7.32;;;;;;;;;;4995129;28;20534;-68
2022/01/01 12:09:27;;;;;;;23.17;6.50;;;;;;;;;;4995107;28;20105;-67
2022/01/01 12:11:55;;;;;;;37.42;8.02;;;;;;;;;;4994901;28;20093;-68
2022/01/01 12:14:23;;;;;;;33.95;6.63;;;;;;;;;;4994952;28;20050;-68
2022/01/01 12:16:51;;;;;;;31.25;6.25;;;;;;;;;;4994846;28;20134;-68
2022/01/01 12:19:17;;;;;;;;;;;;;;;;;;4995600;28;20071;-68
2022/01/01 12:21:44;;;;;;;29.92;6.55;;;;;;;;;;4994899;28;19925;-68
2022/01/01 12:24:17;;;;;;;32.08;6.88;;;;;;;;;;4995065;28;20058;-68
2022/01/01 12:26:52;;;;;;;32.47;5.63;;;;;;;;;;4994653;28;20050;-69
2022/01/01 12:29:22;;;;;;;28.42;6.30;;;;;;;;;;4979734;28;20101;-68
2022/01/01 12:31:55;;;;;;;35.50;6.95;;;;;;;;;;4988484;28;20046;-68
2022/01/01 12:34:22;;;;;;;30.60;5.70;;;;;;;;;;4994622;28;20050;-68
2022/01/01 12:36:49;;;;;;;;;;;;;;;;;;4995389;28;20111;-68
2022/01/01 12:39:16;;;;;;;32.08;7.13;;;;;;;;;;4994438;28;19984;-68
2022/01/01 12:41:44;;;;;;;31.70;6.50;;;;;;;;;;4994450;28;20050;-68
2022/01/01 12:44:17;;;;;;;30.05;6.32;;;;;;;;;;4986673;28;20057;-68
2022/01/01 12:46:45;;;;;;;28.35;6.53;;;;;;;;;;4982339;28;20498;-68
2022/01/01 12:49:13;;;;;;;31.85;6.55;;;;;;;;;;4983094;28;20053;-68
2022/01/01 12:51:39;;;;;;;34.75;7.45;;;;;;;;;;4974184;28;20054;-68
2022/01/01 12:54:06;;;;;;;33.90;6.75;;;;;;;;;;4990583;28;20064;-68
2022/01/01 12:56:33;;;;;;;35.42;6.85;;;;;;;;;;4994429;28;20058;-68
2022/01/01 12:59:01;;;;;;;36.85;7.03;;;;;;;;;;4994146;28;20568;-67
2022/01/01 13:01:31;;;;;;;29.60;5.97;;;;;;;;;;4994182;28;20109;-68
2022/01/01 13:04:08;;;;;;;28.00;6.70;;;;;;;;;;4994404;28;20050;-68
2022/01/01 13:06:39;;;;;;;32.22;6.78;;;;;;;;;;4994060;28;20054;-68
2022/01/01 13:09:13;;;;;;;29.27;6.63;;;;;;;;;;4994366;28;20050;-67
2022/01/01 13:11:41;;;;;;;30.75;7.18;;;;;;;;;;4983487;28;20039;-68
2022/01/01 13:14:08;;;;;;;30.15;5.40;;;;;;;;;;4978380;28;20039;-67
2022/01/01 13:16:35;;;;;;;32.00;6.00;;;;;;;;;;4973785;28;20094;-67
2022/01/01 13:19:03;;;;;;;37.05;7.88;;;;;;;;;;4989467;28;20553;-66
2022/01/01 13:21:29;;;;;;;32.30;6.68;;;;;;;;;;4981499;28;20055;-66
2022/01/01 13:23:56;;;;;;;33.47;5.78;;;;;;;;;;4972596;28;20058;-65
2022/01/01 13:26:23;;;;;;;31.23;6.63;;;;;;;;;;4974919;28;20046;-66
2022/01/01 13:28:50;;;;;;;32.25;6.20;;;;;;;;;;4983485;28;20050;-68
2022/01/01 13:31:16;;;;;;;33.15;5.78;;;;;;;;;;4984799;28;20047;-66
2022/01/01 13:33:46;;;;;;;36.97;7.35;;;;;;;;;;4980230;28;20125;-67
2022/01/01 13:36:27;;;;;;;40.97;7.00;;;;;;;;;;4973657;28;20854;-66
2022/01/01 13:38:54;;;;;;;30.40;7.47;;;;;;;;;;4986001;28;20053;-68
2022/01/01 13:41:20;;;;;;;26.70;7.83;;;;;;;;;;4993008;28;20042;-67
2022/01/01 13:43:47;;;;;;;31.90;7.15;;;;;;;;;;4990789;28;20288;-68
2022/01/01 13:46:16;;;;;;;34.13;6.90;;;;;;;;;;4973743;28;20051;-68
2022/01/01 13:48:46;;;;;;;29.88;6.60;;;;;;;;;;4973668;28;20097;-67
2022/01/01 13:51:23;;;;;;;33.08;6.60;;;;;;;;;;4989306;28;20586;-68
2022/01/01 13:53:51;;;;;;;31.98;7.70;;;;;;;;;;4993060;28;20046;-68
2022/01/01 13:56:19;;;;;;;30.27;6.93;;;;;;;;;;4993442;28;20556;-67
2022/01/01 13:58:49;;;;;;;28.58;6.68;;;;;;;;;;4992879;28;20101;-67
2022/01/01 14:01:17;;;;;;;29.00;5.82;;;;;;;;;;4992788;28;20104;-67
2022/01/01 14:03:47;;;;;;;30.45;5.63;;;;;;;;;;4992088;28;20132;-67
2022/01/01 14:06:21;;;;;;;36.65;7.75;;;;;;;;;;4992867;28;20046;-67
2022/01/01 14:08:57;;;;;;;33.67;6.07;;;;;;;;;;4986504;28;20058;-67
2022/01/01 14:11:30;;;;;;;35.45;6.38;;;;;;;;;;4992604;28;20061;-67
2022/01/01 14:14:06;;;;;;;30.23;6.72;;;;;;;;;;4992288;28;20050;-67
2022/01/01 14:16:33;;;;;;;35.10;6.65;;;;;;;;;;4976009;28;20058;-66
2022/01/01 14:19:00;;;;;;;29.63;6.87;;;;;;;;;;4987001;28;20049;-67
2022/01/01 14:21:27;;;;;;;36.05;6.70;;;;;;;;;;4992531;28;20295;-67
2022/01/01 14:23:55;;;;;;;40.13;7.53;;;;;;;;;;4992909;28;20054;-67
2022/01/01 14:26:22;;;;;;;35.22;6.45;;;;;;;;;;4992766;28;20097;-67
2022/01/01 14:28:49;;;;;;;29.67;5.90;;;;;;;;;;4992175;28;20054;-67
2022/01/01 14:31:16;;;;;;;34.25;7.97;;;;;;;;;;4991808;28;20498;-67
2022/01/01 14:33:42;;;;;;;33.93;6.67;;;;;;;;;;4991903;28;20046;-67
2022/01/01 14:36:10;;;;;;;36.85;6.50;;;;;;;;;;4992295;28;20104;-67
2022/01/01 14:38:37;;;;;;;;;;;;;;;;;;4982884;28;20109;-67
2022/01/01 14:41:04;;;;;;;38.03;7.40;;;;;;;;;;4972448;28;20333;-67